Time;durP1;ratioP1;P1;durP2;ratioP2;P2;SDS_P1;SDS_P2;PMS_P1;PMS_P2;Temp;Humidity;BMP_temperature;BMP_pressure;BME280_temperature;BME280_humidity;BME280_pressure;Samples;Min_cycle;Max_cycle;Signal;HPM_P1;HPM_P2
2022/11/26 00:01:01;;;;;;;22.23;18.70;;;6.30;99.90;;;-141.84;90.56;18576.31;5050791;28;20221;-59
2022/11/26 00:03:31;;;;;;;22.30;17.50;;;6.30;99.90;;;-141.84;90.16;18560.06;5059622;28;20289;-59
2022/11/26 00:05:59;;;;;;;25.03;18.30;;;6.30;99.90;;;-141.84;90.54;18568.19;5072862;28;20232;-59
2022/11/26 00:08:33;;;;;;;22.03;17.83;;;6.30;99.90;;;-141.84;90.40;18560.06;5075240;28;20220;-60
2022/11/26 00:11:02;;;;;;;23.07;16.77;;;6.30;99.90;;;-141.84;90.25;18533.66;5074945;28;20227;-61
2022/11/26 00:13:31;;;;;;;20.10;15.43;;;6.30;99.90;;;-141.84;90.25;18549.91;5074857;28;20224;-62
2022/11/26 00:16:00;;;;;;;21.77;16.30;;;6.30;99.90;;;-141.84;90.33;18564.13;5055584;28;20629;-59
2022/11/26 00:18:28;;;;;;;17.73;14.83;;;6.30;99.90;;;-141.84;90.53;18549.91;5055135;28;20236;-60
2022/11/26 00:21:01;;;;;;;20.13;15.13;;;6.30;99.90;;;-141.84;90.42;18566.16;5054848;28;20205;-61
2022/11/26 00:23:29;;;;;;;21.50;15.13;;;6.30;99.90;;;-141.84;90.03;18576.31;5055072;28;20228;-60
2022/11/26 00:26:01;;;;;;;19.90;14.63;;;6.30;99.90;;;-141.84;89.66;18570.22;5054613;28;20225;-60
2022/11/26 00:28:33;;;;;;;18.73;14.53;;;6.40;99.90;;;-141.84;89.68;18576.31;5054664;28;20236;-62
2022/11/26 00:31:04;;;;;;;18.23;14.70;;;6.30;99.90;;;-141.84;89.50;18570.22;5054355;28;20237;-62
2022/11/26 00:33:33;;;;;;;23.00;14.60;;;6.40;99.90;;;-141.84;89.16;18594.63;5054391;28;20225;-60
2022/11/26 00:36:15;;;;;;;20.37;14.70;;;6.40;99.90;;;-141.84;88.67;18562.09;5054613;28;20202;-61
2022/11/26 00:38:44;;;;;;;24.57;16.73;;;6.40;99.90;;;-141.84;88.38;18631.19;5055277;28;20236;-63
2022/11/26 00:41:18;;;;;;;23.90;17.23;;;6.40;99.90;;;-141.84;88.38;18614.94;5054564;28;20700;-60
2022/11/26 00:43:46;;;;;;;24.67;17.50;;;6.50;99.90;;;-141.84;88.74;18631.19;5054426;28;20286;-62
2022/11/26 00:46:15;;;;;;;22.70;16.17;;;6.50;99.90;;;-141.84;89.21;18586.50;5054056;28;20728;-60
2022/11/26 00:48:44;;;;;;;24.03;17.33;;;6.50;99.90;;;-141.84;89.29;18582.44;5053941;28;20316;-59
2022/11/26 00:51:19;;;;;;;21.50;16.77;;;6.50;99.90;;;-141.84;89.42;18614.94;5053960;28;20286;-60
2022/11/26 00:53:49;;;;;;;24.77;17.23;;;6.50;99.90;;;-141.84;89.50;18606.81;5054274;28;20200;-60
2022/11/26 00:56:21;;;;;;;24.27;17.10;;;6.50;99.90;;;-141.84;89.06;18612.91;5054711;28;20240;-61
2022/11/26 00:58:50;;;;;;;23.97;17.50;;;6.50;99.90;;;-141.84;89.37;18602.75;5054082;28;20583;-59
2022/11/26 01:01:22;;;;;;;22.70;17.03;;;6.50;99.90;;;-141.84;89.26;18592.59;5054006;28;20225;-61
2022/11/26 01:03:51;;;;;;;25.37;17.37;;;6.60;99.90;;;-141.84;89.68;18580.41;5065124;28;20232;-59
2022/11/26 01:06:26;;;;;;;26.77;18.33;;;6.50;99.90;;;-141.84;90.24;18574.28;5073157;28;20228;-62
2022/11/26 01:08:54;;;;;;;24.03;18.40;;;6.40;99.90;;;-141.84;90.16;18568.19;5073931;28;20204;-61
2022/11/26 01:11:23;;;;;;;26.00;19.83;;;6.40;99.90;;;-141.84;90.70;18562.09;5074213;28;20307;-63
2022/11/26 01:13:54;;;;;;;24.43;20.13;;;6.40;99.90;;;-141.84;91.14;18535.69;5071994;28;20229;-60
2022/11/26 01:16:27;;;;;;;25.63;20.50;;;6.40;99.90;;;-141.84;91.08;18572.25;5053476;28;20224;-61
2022/11/26 01:18:57;;;;;;;31.20;22.67;;;6.40;99.90;;;-141.84;91.24;18547.88;5053841;28;20304;-59
2022/11/26 01:21:32;;;;;;;31.63;23.00;;;6.40;99.90;;;-141.84;91.53;18539.75;5053322;28;20229;-61
2022/11/26 01:24:00;;;;;;;30.27;22.60;;;6.40;99.90;;;-141.84;91.98;18529.59;5053624;28;20188;-59
2022/11/26 01:26:35;;;;;;;32.00;24.73;;;6.30;99.90;;;-141.84;92.28;18537.72;5053886;28;20668;-60
2022/11/26 01:29:04;;;;;;;38.33;25.93;;;6.40;99.90;;;-141.84;92.10;18533.66;5053227;28;20248;-61
2022/11/26 01:31:33;;;;;;;33.73;23.23;;;6.40;99.90;;;-141.84;92.21;18521.47;5053372;28;20771;-60
2022/11/26 01:34:01;;;;;;;30.63;22.67;;;6.40;99.90;;;-141.84;92.42;18509.28;5053348;28;20271;-62
2022/11/26 01:36:34;;;;;;;38.67;24.50;;;6.40;99.90;;;-141.84;92.51;18523.50;5053284;28;20225;-61
2022/11/26 01:39:07;;;;;;;29.10;21.37;;;6.40;99.90;;;-141.84;92.49;18531.63;5053533;28;20190;-61
2022/11/26 01:41:45;;;;;;;29.93;20.80;;;6.40;99.90;;;-141.84;92.49;18505.22;5054171;28;20259;-60
2022/11/26 01:44:19;;;;;;;29.67;21.40;;;6.40;99.90;;;-141.84;92.48;18545.84;5053492;28;20578;-61
2022/11/26 01:46:49;;;;;;;28.67;20.43;;;6.50;99.90;;;-141.84;92.42;18535.69;5053275;28;20259;-60
2022/11/26 01:49:21;;;;;;;31.53;21.03;;;6.50;99.90;;;-141.84;92.34;18515.38;5052872;28;20233;-60
2022/11/26 01:52:03;;;;;;;26.90;19.23;;;6.50;99.90;;;-141.84;92.76;18503.19;5052767;28;20248;-61
2022/11/26 01:54:34;;;;;;;29.90;21.80;;;6.50;99.90;;;-141.84;93.23;18491.00;5053313;28;20233;-60
2022/11/26 01:57:10;;;;;;;26.83;19.33;;;6.50;99.90;;;-141.84;93.47;18486.94;5053027;28;20186;-60
2022/11/26 01:59:43;;;;;;;29.37;19.57;;;6.40;99.90;;;-141.84;93.65;18513.34;5053639;28;20209;-61
2022/11/26 02:02:11;;;;;;;28.97;20.03;;;6.50;99.90;;;-141.84;93.78;18515.38;5053019;28;20286;-60
2022/11/26 02:04:47;;;;;;;30.77;20.53;;;6.50;99.90;;;-141.84;93.99;18529.59;5071038;28;20244;-60
2022/11/26 02:07:16;;;;;;;29.27;19.43;;;6.50;99.90;;;-141.84;94.23;18482.88;5072497;28;20231;-60
2022/11/26 02:09:46;;;;;;;31.47;20.20;;;6.50;99.90;;;-141.84;94.22;18460.53;5072699;28;20240;-60
2022/11/26 02:12:14;;;;;;;28.20;19.67;;;6.50;99.90;;;-141.84;94.29;18464.59;5072436;28;20239;-60
2022/11/26 02:14:44;;;;;;;26.27;19.03;;;6.50;99.90;;;-141.84;94.16;18495.06;5064313;28;20267;-59
2022/11/26 02:17:27;;;;;;;33.67;19.70;;;6.50;99.90;;;-141.84;93.97;18511.31;5032629;28;20211;-60
2022/11/26 02:20:45;;;;;;;27.07;19.10;;;6.50;99.90;;;-141.84;93.67;18501.16;5032459;28;20222;-60
2022/11/26 02:24:07;;;;;;;27.43;18.40;;;6.60;99.90;;;-141.84;93.73;18529.59;5033923;28;20229;-60
2022/11/26 02:27:40;;;;;;;30.70;19.27;;;6.60;99.90;;;-141.84;93.58;18523.50;5052516;28;20225;-60
2022/11/26 02:30:12;;;;;;;25.93;17.73;;;6.60;99.90;;;-141.84;93.15;18495.06;5032409;28;20226;-60
2022/11/26 02:33:02;;;;;;;27.30;18.30;;;6.60;99.90;;;-141.84;92.96;18511.31;5033043;28;20187;-61
2022/11/26 02:35:40;;;;;;;29.83;18.30;;;6.60;99.90;;;-141.84;93.01;18507.25;5032768;28;20214;-60
2022/11/26 02:38:15;;;;;;;25.63;17.70;;;6.60;99.90;;;-141.84;92.96;18503.19;5032016;28;20230;-61
2022/11/26 02:40:43;;;;;;;22.63;16.77;;;6.60;99.90;;;-141.84;92.92;18505.22;5032291;28;20226;-60
2022/11/26 02:43:14;;;;;;;27.27;17.40;;;6.60;99.90;;;-141.84;92.74;18499.13;5032082;28;20268;-59
2022/11/26 02:45:49;;;;;;;23.87;15.60;;;6.50;99.90;;;-141.84;93.00;18501.16;5031985;28;20248;-60
2022/11/26 02:48:24;;;;;;;21.03;14.33;;;6.50;99.90;;;-141.84;93.46;18503.19;5031781;28;20247;-60
2022/11/26 02:50:58;;;;;;;23.90;14.70;;;6.40;99.90;;;-141.84;93.42;18480.84;5032065;28;20206;-60
2022/11/26 02:53:32;;;;;;;21.40;15.27;;;6.40;99.90;;;-141.84;93.88;18464.59;5032092;28;20190;-59
2022/11/26 02:56:07;;;;;;;21.87;13.93;;;6.40;99.90;;;-141.84;94.33;18493.03;5032061;28;20276;-61
2022/11/26 02:58:36;;;;;;;22.03;14.30;;;6.40;99.90;;;-141.84;94.49;18464.59;5031838;28;20229;-61
2022/11/26 03:01:12;;;;;;;21.00;13.77;;;6.50;99.90;;;-141.84;94.58;18486.94;5031999;28;20279;-61
2022/11/26 03:03:48;;;;;;;27.23;15.07;;;6.60;99.90;;;-141.84;94.27;18462.56;5041714;28;20225;-60
2022/11/26 03:06:18;;;;;;;18.47;13.03;;;6.60;99.90;;;-141.84;94.39;18482.88;5051852;28;20232;-60
2022/11/26 03:08:47;;;;;;;22.87;14.13;;;6.70;99.90;;;-141.84;94.27;18499.13;5051343;28;20607;-62
2022/11/26 03:11:15;;;;;;;25.47;14.13;;;6.70;99.90;;;-141.84;94.34;18491.00;5052038;28;20225;-60
2022/11/26 03:13:43;;;;;;;18.23;12.50;;;6.70;99.90;;;-141.84;94.06;18491.00;5051252;28;20237;-60
2022/11/26 03:16:12;;;;;;;19.67;13.63;;;6.80;99.90;;;-141.84;94.20;18499.13;5031801;28;20230;-61
2022/11/26 03:18:41;;;;;;;19.83;13.30;;;6.80;99.90;;;-141.84;94.06;18507.25;5031576;28;20535;-61
2022/11/26 03:21:09;;;;;;;18.20;12.47;;;6.80;99.90;;;-141.84;94.17;18466.63;5030303;28;20232;-61
2022/11/26 03:23:37;;;;;;;21.53;12.80;;;6.80;99.90;;;-141.84;93.58;18529.59;5031611;28;20276;-61
2022/11/26 03:26:05;;;;;;;19.40;12.10;;;6.80;99.90;;;-141.84;93.42;18511.31;5031492;28;20226;-60
2022/11/26 03:28:34;;;;;;;16.00;11.73;;;6.90;99.90;;;-141.84;93.00;18511.31;5031443;28;20241;-60
2022/11/26 03:31:02;;;;;;;24.30;13.13;;;6.90;99.90;;;-141.84;92.94;18531.63;5031427;28;20291;-59
2022/11/26 03:33:31;;;;;;;17.87;12.50;;;6.90;99.90;;;-141.84;92.44;18556.00;5031351;28;20904;-60
2022/11/26 03:35:59;;;;;;;18.33;12.17;;;6.90;99.90;;;-141.84;92.34;18529.59;5031405;28;20206;-60
2022/11/26 03:38:28;;;;;;;21.10;12.63;;;6.90;99.90;;;-141.84;92.36;18515.38;5031805;28;20263;-60
2022/11/26 03:40:57;;;;;;;15.93;11.50;;;6.90;99.90;;;-141.84;92.13;18539.75;5031170;28;20229;-60
2022/11/26 03:43:26;;;;;;;17.07;12.43;;;6.90;99.90;;;-141.84;92.08;18564.13;5031395;28;20562;-59
2022/11/26 03:45:54;;;;;;;24.80;13.10;;;7.00;99.90;;;-141.84;91.51;18527.56;5031190;28;20236;-59
2022/11/26 03:48:22;;;;;;;18.10;11.93;;;6.90;99.90;;;-141.84;91.44;18558.03;5031132;28;20241;-60
2022/11/26 03:50:52;;;;;;;19.00;12.30;;;7.00;99.90;;;-141.84;90.89;18582.44;5030997;28;20279;-61
2022/11/26 03:53:20;;;;;;;17.70;11.47;;;7.00;99.90;;;-141.84;90.89;18551.94;5031696;28;20214;-60
2022/11/26 03:55:48;;;;;;;19.13;11.83;;;7.00;99.90;;;-141.84;90.89;18560.06;5031267;28;20241;-61
2022/11/26 03:58:16;;;;;;;18.07;12.67;;;6.90;99.90;;;-141.84;91.12;18543.81;5031140;28;20225;-60
2022/11/26 04:00:45;;;;;;;18.17;12.87;;;6.90;99.90;;;-141.84;91.23;18560.06;5031053;28;20232;-62
2022/11/26 04:03:13;;;;;;;17.20;12.90;;;6.90;99.90;;;-141.84;91.60;18566.16;5037511;28;20228;-59
2022/11/26 04:05:41;;;;;;;17.37;11.70;;;6.90;99.90;;;-141.84;91.89;18521.47;5051607;28;20201;-60
2022/11/26 04:08:11;;;;;;;20.23;13.00;;;6.90;99.90;;;-141.84;91.78;18523.50;5050789;28;20225;-61
2022/11/26 04:10:39;;;;;;;19.73;11.87;;;6.80;99.90;;;-141.84;91.82;18521.47;5050736;28;20233;-61
2022/11/26 04:13:07;;;;;;;20.10;12.60;;;6.80;99.90;;;-141.84;92.06;18545.84;5051152;28;20263;-61
2022/11/26 04:15:35;;;;;;;21.13;12.83;;;6.80;99.90;;;-141.84;92.09;18523.50;5035035;28;20783;-59
2022/11/26 04:18:03;;;;;;;20.97;13.80;;;6.80;99.90;;;-141.84;92.06;18527.56;5030533;28;20210;-60
2022/11/26 04:20:32;;;;;;;21.13;13.33;;;6.80;99.90;;;-141.84;92.40;18525.53;5031406;28;20206;-59
2022/11/26 04:23:00;;;;;;;18.87;12.37;;;6.70;99.90;;;-141.84;91.80;18497.09;5030569;28;20287;-60
2022/11/26 04:25:29;;;;;;;22.13;14.37;;;6.80;99.90;;;-141.84;92.03;18566.16;5030836;28;20291;-60
2022/11/26 04:27:57;;;;;;;20.67;13.67;;;6.80;99.90;;;-141.84;92.18;18503.19;5030068;28;20233;-65
2022/11/26 04:30:26;;;;;;;23.00;13.70;;;6.80;99.90;;;-141.84;91.96;18523.50;5030472;28;20253;-62
2022/11/26 04:32:57;;;;;;;23.03;14.10;;;6.80;99.90;;;-141.84;92.08;18505.22;5031186;28;20187;-62
2022/11/26 04:35:25;;;;;;;23.10;14.90;;;6.90;99.90;;;-141.84;92.06;18529.59;5031117;28;20568;-62
2022/11/26 04:37:53;;;;;;;22.20;14.13;;;6.80;99.90;;;-141.84;92.26;18547.88;5030500;28;20759;-62
2022/11/26 04:40:21;;;;;;;19.73;13.70;;;6.90;99.90;;;-141.84;92.19;18553.97;5030833;28;20233;-62
2022/11/26 04:42:51;;;;;;;24.40;13.83;;;6.90;99.90;;;-141.84;91.90;18523.50;5030921;28;20233;-62
2022/11/26 04:45:19;;;;;;;20.67;13.73;;;7.00;99.90;;;-141.84;91.99;18533.66;5030790;28;20248;-62
2022/11/26 04:47:47;;;;;;;22.97;14.57;;;7.00;99.90;;;-141.84;92.03;18521.47;5030817;28;20245;-62
2022/11/26 04:50:15;;;;;;;18.87;12.90;;;7.00;99.90;;;-141.84;92.03;18529.59;5031196;28;20681;-61
2022/11/26 04:52:47;;;;;;;22.57;14.30;;;7.00;99.90;;;-141.84;92.17;18505.22;5033217;28;20257;-63
2022/11/26 04:55:15;;;;;;;20.33;13.73;;;7.00;99.90;;;-141.84;92.06;18564.13;5034316;28;20252;-63
2022/11/26 04:57:47;;;;;;;18.07;12.93;;;7.00;99.90;;;-141.84;91.89;18523.50;5034206;28;20240;-61
2022/11/26 05:00:19;;;;;;;17.97;12.53;;;7.00;99.90;;;-141.84;91.89;18525.53;5034336;28;20230;-63
2022/11/26 05:02:47;;;;;;;18.63;13.40;;;6.80;99.90;;;-141.84;92.04;18525.53;5036891;28;20213;-63
2022/11/26 05:05:16;;;;;;;18.77;13.83;;;6.80;99.90;;;-141.84;92.10;18537.72;5054211;28;20649;-61
2022/11/26 05:07:44;;;;;;;20.80;13.83;;;6.70;99.90;;;-141.84;92.49;18527.56;5053728;28;20237;-62
2022/11/26 05:10:13;;;;;;;20.60;14.33;;;6.70;99.90;;;-141.84;92.69;18501.16;5053967;28;20225;-61
2022/11/26 05:12:41;;;;;;;21.03;13.87;;;6.70;99.90;;;-141.84;92.81;18503.19;5053448;28;20233;-62
2022/11/26 05:15:10;;;;;;;21.30;14.27;;;6.70;99.90;;;-141.84;93.08;18499.13;5041288;28;20226;-62
2022/11/26 05:17:40;;;;;;;21.23;14.50;;;6.70;99.90;;;-141.84;93.20;18497.09;5034208;28;20212;-61
2022/11/26 05:20:10;;;;;;;22.40;14.23;;;6.70;99.90;;;-141.84;93.17;18497.09;5033791;28;20221;-62
2022/11/26 05:22:38;;;;;;;20.37;15.27;;;6.60;99.90;;;-141.84;93.17;18493.03;5033517;28;20238;-62
2022/11/26 05:25:07;;;;;;;21.20;14.80;;;6.50;99.90;;;-141.84;93.06;18486.94;5033792;28;20230;-61
2022/11/26 05:27:36;;;;;;;24.53;14.43;;;6.40;99.90;;;-141.84;93.29;18458.50;5033822;28;20237;-63
2022/11/26 05:30:06;;;;;;;21.57;14.73;;;6.30;99.90;;;-141.84;93.54;18428.03;5033747;28;20244;-62
2022/11/26 05:32:34;;;;;;;21.93;14.00;;;6.20;99.90;;;-141.84;93.93;18442.25;5033641;28;20230;-62
2022/11/26 05:35:05;;;;;;;20.10;14.37;;;6.10;99.90;;;-141.84;94.38;18434.13;5033091;28;20236;-62
2022/11/26 05:37:33;;;;;;;19.27;13.93;;;6.10;99.90;;;-141.84;94.69;18442.25;5032761;28;20743;-63
2022/11/26 05:40:01;;;;;;;23.73;15.93;;;6.10;99.90;;;-141.84;94.68;18415.81;5033179;28;20295;-62
2022/11/26 05:42:29;;;;;;;19.37;14.23;;;6.00;99.90;;;-141.84;94.97;18425.97;5033370;28;20284;-62
2022/11/26 05:44:57;;;;;;;21.20;14.57;;;5.90;99.90;;;-141.84;95.08;18391.44;5033515;28;20202;-62
2022/11/26 05:47:25;;;;;;;25.03;14.30;;;5.90;99.90;;;-141.84;95.17;18428.03;5033297;28;20299;-62
2022/11/26 05:49:54;;;;;;;24.53;16.43;;;5.80;99.90;;;-141.84;95.60;18397.53;5033085;28;20280;-63
2022/11/26 05:52:23;;;;;;;25.77;15.77;;;5.80;99.90;;;-141.84;95.67;18411.75;5021318;28;20226;-63
2022/11/26 05:54:52;;;;;;;22.87;15.53;;;5.70;99.90;;;-141.84;95.92;18377.22;5013533;28;20242;-63
2022/11/26 05:57:20;;;;;;;26.93;16.73;;;5.70;99.90;;;-141.84;95.92;18354.88;5013211;28;20234;-62
2022/11/26 05:59:48;;;;;;;28.33;16.17;;;5.70;99.90;;;-141.84;96.05;18393.47;5013284;28;20198;-62
2022/11/26 06:02:16;;;;;;;27.37;16.27;;;5.80;99.90;;;-141.84;96.14;18375.19;5013080;28;20269;-62
2022/11/26 06:04:45;;;;;;;25.27;15.20;;;5.70;99.90;;;-141.84;96.42;18379.25;5066583;28;20237;-64
2022/11/26 06:07:13;;;;;;;29.87;17.20;;;5.70;99.90;;;-141.84;96.50;18377.22;5060275;28;20622;-63
2022/11/26 06:09:43;;;;;;;26.10;16.10;;;5.70;99.90;;;-141.84;96.69;18356.91;5052821;28;20233;-61
2022/11/26 06:12:11;;;;;;;25.20;17.00;;;5.70;99.90;;;-141.84;96.92;18360.97;5034271;28;20279;-63
2022/11/26 06:14:39;;;;;;;26.97;15.70;;;5.70;99.90;;;-141.84;97.14;18342.69;5033187;28;20256;-62
2022/11/26 06:17:11;;;;;;;28.50;16.90;;;5.70;99.90;;;-141.84;97.24;18334.56;5032485;28;20284;-63
2022/11/26 06:19:39;;;;;;;23.00;15.77;;;5.60;99.90;;;-141.84;97.33;18326.44;5032686;28;20226;-63
2022/11/26 06:22:08;;;;;;;29.10;16.30;;;5.60;99.90;;;-141.84;97.35;18346.75;5032499;28;20245;-62
2022/11/26 06:24:36;;;;;;;29.30;17.87;;;5.60;99.90;;;-141.84;97.55;18342.69;5032450;28;20225;-61
2022/11/26 06:27:06;;;;;;;30.10;16.83;;;5.50;99.90;;;-141.84;97.85;18318.31;5032702;28;20241;-62
2022/11/26 06:29:35;;;;;;;32.10;17.57;;;5.60;99.90;;;-141.84;98.12;18302.06;5032660;28;20194;-62
2022/11/26 06:32:03;;;;;;;30.10;17.73;;;5.60;99.90;;;-141.84;98.09;18314.25;5032062;28;20225;-62
2022/11/26 06:34:31;;;;;;;30.53;17.50;;;5.60;99.90;;;-141.84;98.13;18271.59;5032167;28;20241;-62
2022/11/26 06:36:59;;;;;;;27.70;17.20;;;5.70;99.90;;;-141.84;98.37;18324.41;5032242;28;20376;-63
2022/11/26 06:39:27;;;;;;;31.50;18.07;;;5.70;99.90;;;-141.84;98.66;18271.59;5032504;28;20234;-62
2022/11/26 06:41:55;;;;;;;36.03;18.50;;;5.70;99.90;;;-141.84;98.62;18263.47;5031736;28;20611;-63
2022/11/26 06:44:25;;;;;;;30.63;18.60;;;5.70;99.90;;;-141.84;98.59;18269.56;5031829;28;20201;-62
2022/11/26 06:46:53;;;;;;;27.97;18.57;;;5.70;99.90;;;-141.84;98.73;18285.81;5031048;28;20392;-62
2022/11/26 06:49:21;;;;;;;27.60;17.73;;;5.70;99.90;;;-141.84;99.21;18269.56;5030777;28;20721;-63
2022/11/26 06:51:50;;;;;;;28.47;17.87;;;5.80;99.90;;;-141.84;98.92;18253.31;5030704;28;20233;-63
2022/11/26 06:54:18;;;;;;;31.07;17.67;;;5.90;99.90;;;-141.84;99.18;18245.19;5030628;28;20576;-63
2022/11/26 06:56:46;;;;;;;29.33;17.87;;;5.80;99.90;;;-141.84;98.98;18222.81;5031472;28;20768;-63
2022/11/26 06:59:15;;;;;;;28.20;17.93;;;5.80;99.90;;;-141.84;99.25;18237.06;5031927;28;20567;-62
2022/11/26 07:01:44;;;;;;;32.20;18.53;;;5.60;99.90;;;-141.84;99.03;18194.38;5031329;28;20229;-62
2022/11/26 07:04:13;;;;;;;31.90;18.77;;;5.60;99.90;;;-141.84;99.22;18176.09;5043030;28;20278;-63
2022/11/26 07:06:41;;;;;;;27.40;17.53;;;5.50;99.90;;;-141.84;99.28;18176.09;5043168;28;20218;-62
2022/11/26 07:09:11;;;;;;;27.27;17.37;;;5.50;99.90;;;-141.84;99.26;18196.41;5031278;28;20574;-63
2022/11/26 07:11:42;;;;;;;26.60;17.50;;;5.50;99.90;;;-141.84;99.16;18180.16;5032511;28;20209;-61
2022/11/26 07:14:10;;;;;;;29.67;19.10;;;5.50;99.90;;;-141.84;99.44;18198.44;5030861;28;20226;-63
2022/11/26 07:16:38;;;;;;;27.97;19.13;;;5.50;99.90;;;-141.84;99.59;18151.72;5030259;28;20229;-64
2022/11/26 07:19:13;;;;;;;32.80;20.93;;;5.60;99.90;;;-141.84;99.48;18123.28;5030389;28;20643;-63
2022/11/26 07:21:41;;;;;;;33.20;20.30;;;5.60;99.90;;;-141.84;99.36;18115.16;5030634;28;20229;-64
2022/11/26 07:24:09;;;;;;;29.33;19.17;;;5.60;99.90;;;-141.84;99.68;18119.22;5029983;28;20225;-62
2022/11/26 07:26:37;;;;;;;33.90;19.73;;;5.50;99.90;;;-141.84;99.63;18102.97;5030851;28;20259;-64
2022/11/26 07:29:06;;;;;;;29.37;19.67;;;5.50;99.90;;;-141.84;99.63;18066.41;5030323;28;20229;-63
2022/11/26 07:31:35;;;;;;;31.07;18.63;;;5.60;99.90;;;-141.84;99.62;18086.72;5030593;28;20296;-63
2022/11/26 07:34:03;;;;;;;32.17;18.87;;;5.60;99.90;;;-141.84;99.72;18066.41;5030175;28;20234;-63
2022/11/26 07:36:32;;;;;;;28.20;17.37;;;5.60;99.90;;;-141.84;99.81;18068.44;5030469;28;20229;-62
2022/11/26 07:39:02;;;;;;;29.30;16.63;;;5.60;99.90;;;-141.84;99.84;18078.59;5030268;28;20256;-62
2022/11/26 07:41:31;;;;;;;29.57;17.83;;;5.60;99.90;;;-141.84;99.82;18054.22;5031291;28;20287;-63
2022/11/26 07:43:59;;;;;;;29.63;18.23;;;5.70;99.90;;;-141.84;99.84;18054.22;5030524;28;20230;-63
2022/11/26 07:46:27;;;;;;;33.87;19.67;;;5.70;99.90;;;-141.84;99.76;18098.91;5031180;28;20230;-65
2022/11/26 07:48:56;;;;;;;32.87;18.77;;;5.70;99.90;;;-141.84;99.93;18078.59;5030568;28;20288;-63
2022/11/26 07:51:27;;;;;;;33.20;18.93;;;5.70;99.90;;;-141.84;99.95;18086.72;5030273;28;20639;-63
2022/11/26 07:53:58;;;;;;;31.13;18.83;;;5.70;99.90;;;-141.84;99.82;18086.72;5029864;28;20218;-63
2022/11/26 07:56:27;;;;;;;37.93;20.27;;;5.60;99.90;;;-141.84;99.90;18082.66;5030776;28;20202;-63
2022/11/26 07:58:55;;;;;;;33.43;18.80;;;5.60;99.90;;;-141.84;99.95;18058.28;5029954;28;20233;-63
2022/11/26 08:01:28;;;;;;;36.00;19.77;;;5.60;99.90;;;-141.84;100.00;18050.16;5029792;28;20237;-63
2022/11/26 08:03:58;;;;;;;35.90;21.80;;;5.70;99.90;;;-141.84;100.00;18070.47;5029372;28;20225;-64
2022/11/26 08:06:28;;;;;;;32.33;19.73;;;5.80;99.90;;;-141.84;100.00;18062.34;5030019;28;20221;-62
2022/11/26 08:09:01;;;;;;;37.00;19.63;;;5.90;99.90;;;-141.84;100.00;18056.25;5030131;28;20183;-63
2022/11/26 08:11:32;;;;;;;32.00;19.53;;;6.10;99.90;;;-141.84;100.00;18074.53;5030888;28;20191;-62
2022/11/26 08:14:03;;;;;;;34.40;20.03;;;6.20;99.90;;;-141.84;100.00;18044.06;5029595;28;20690;-62
2022/11/26 08:16:31;;;;;;;34.97;18.80;;;6.30;99.90;;;-141.84;100.00;18107.03;5030602;28;20233;-63
2022/11/26 08:19:02;;;;;;;35.10;18.93;;;6.40;99.90;;;-141.84;100.00;18094.84;5030905;28;20284;-62
2022/11/26 08:21:30;;;;;;;34.17;19.43;;;6.50;99.90;;;-141.84;100.00;18088.75;5031172;28;20225;-61
2022/11/26 08:24:00;;;;;;;33.50;18.27;;;6.70;99.90;;;-141.84;100.00;18082.66;5029662;28;20697;-63
2022/11/26 08:26:28;;;;;;;33.30;17.73;;;6.80;99.90;;;-141.84;100.00;18090.78;5031457;28;20251;-62
2022/11/26 08:29:03;;;;;;;29.43;18.17;;;6.90;99.90;;;-141.84;100.00;18064.38;5030704;28;20331;-62
2022/11/26 08:31:31;;;;;;;27.47;17.30;;;7.00;99.90;;;-141.84;100.00;18098.91;5033088;28;20222;-62
2022/11/26 08:34:01;;;;;;;30.37;16.67;;;7.10;99.90;;;-141.84;99.38;18113.13;5029677;28;20257;-62
2022/11/26 08:36:31;;;;;;;24.47;15.30;;;7.10;99.90;;;-141.84;98.72;18125.31;5034150;28;20604;-63
2022/11/26 08:39:01;;;;;;;24.60;15.07;;;7.10;99.90;;;-141.84;97.80;18137.50;5033021;28;20198;-62
2022/11/26 08:41:29;;;;;;;29.27;15.80;;;7.20;99.90;;;-141.84;97.37;18127.34;5034388;28;20198;-62
2022/11/26 08:43:57;;;;;;;24.63;14.53;;;7.10;99.90;;;-141.84;96.46;18098.91;5033557;28;20229;-62
2022/11/26 08:46:35;;;;;;;25.87;15.03;;;7.10;99.90;;;-141.84;95.78;18113.13;5034152;28;20727;-62
2022/11/26 08:49:03;;;;;;;23.03;13.80;;;7.10;99.90;;;-141.84;95.07;18105.00;5033653;28;20253;-62
2022/11/26 08:51:32;;;;;;;20.13;13.50;;;7.10;99.90;;;-141.84;93.90;18149.69;5033601;28;20229;-62
2022/11/26 08:54:02;;;;;;;20.93;13.43;;;7.20;99.90;;;-141.84;93.35;18143.59;5033023;28;20218;-62
2022/11/26 08:56:31;;;;;;;22.63;13.83;;;7.10;99.90;;;-141.84;93.08;18147.66;5034554;28;20191;-63
2022/11/26 08:58:59;;;;;;;21.83;13.83;;;7.20;99.90;;;-141.84;92.32;18165.94;5032926;28;20604;-62
2022/11/26 09:01:31;;;;;;;22.03;12.73;;;7.20;99.90;;;-141.84;91.76;18182.19;5033319;28;20238;-62
2022/11/26 09:04:02;;;;;;;21.63;13.20;;;7.30;99.90;;;-141.84;91.26;18137.50;5043658;28;20221;-62
2022/11/26 09:06:33;;;;;;;21.83;13.60;;;7.20;99.90;;;-141.84;90.58;18194.38;5046837;28;20228;-63
2022/11/26 09:09:13;;;;;;;16.87;12.00;;;7.30;99.90;;;-141.84;89.80;18204.53;5033747;28;20190;-62
2022/11/26 09:11:48;;;;;;;18.80;11.83;;;7.40;99.90;;;-141.84;88.42;18263.47;5034466;28;20190;-63
2022/11/26 09:14:19;;;;;;;20.63;11.83;;;7.50;99.90;;;-141.84;88.92;18273.63;5033412;28;20579;-63
2022/11/26 09:16:47;;;;;;;24.73;12.20;;;7.60;99.90;;;-141.84;88.19;18263.47;5033655;28;20229;-62
2022/11/26 09:19:17;;;;;;;20.20;12.00;;;7.70;99.90;;;-141.84;85.95;18293.94;5033560;28;20222;-62
2022/11/26 09:21:46;;;;;;;18.30;11.20;;;7.90;99.90;;;-141.84;84.37;18332.53;5033168;28;20225;-63
2022/11/26 09:24:17;;;;;;;16.20;10.40;;;8.10;99.90;;;-141.84;83.38;18401.59;5033253;28;20230;-63
2022/11/26 09:26:47;;;;;;;18.90;10.07;;;8.20;99.90;;;-141.84;82.11;18468.66;5033874;28;20585;-64
2022/11/26 09:29:18;;;;;;;14.57;9.17;;;8.40;99.90;;;-141.84;81.11;18482.88;5033765;28;20218;-62
2022/11/26 09:31:47;;;;;;;16.70;9.03;;;8.50;99.90;;;-141.84;79.72;18586.50;5032773;28;20237;-65
2022/11/26 09:34:36;;;;;;;14.97;8.33;;;8.50;99.90;;;-141.84;78.82;18631.19;5032975;28;20230;-62
2022/11/26 09:37:05;;;;;;;13.30;8.10;;;8.60;99.90;;;-141.84;78.79;18641.34;5032755;28;20225;-63
2022/11/26 09:39:35;;;;;;;14.37;8.03;;;8.60;99.90;;;-141.84;77.48;18684.00;5032822;28;20226;-63
2022/11/26 09:42:07;;;;;;;12.67;7.83;;;8.70;99.90;;;-141.84;77.68;18686.03;5032810;28;20198;-63
2022/11/26 09:44:55;;;;;;;12.60;7.27;;;8.70;99.90;;;-141.84;77.70;18702.28;5032933;28;20194;-62
2022/11/26 09:47:28;;;;;;;14.83;8.13;;;8.70;99.90;;;-141.84;77.28;18736.84;5049972;28;20241;-62
2022/11/26 09:50:07;;;;;;;13.63;7.13;;;8.70;99.90;;;-141.84;76.12;18761.22;5051257;28;20233;-63
2022/11/26 09:52:43;;;;;;;13.07;7.67;;;8.80;99.90;;;-141.84;76.77;18777.47;5050964;28;20696;-62
2022/11/26 09:55:20;;;;;;;13.37;7.37;;;8.90;99.90;;;-141.84;76.63;18767.31;5066251;28;20232;-63
2022/11/26 09:58:03;;;;;;;13.03;7.50;;;8.90;99.90;;;-141.84;76.41;18799.81;5052448;28;20236;-62
2022/11/26 10:00:35;;;;;;;10.83;6.73;;;8.90;99.90;;;-141.84;76.77;18822.19;5046229;28;20230;-63
2022/11/26 10:03:14;;;;;;;16.40;7.20;;;8.90;99.90;;;-141.84;75.58;18805.91;5032232;28;20193;-62
2022/11/26 10:05:50;;;;;;;11.37;6.37;;;8.90;99.90;;;-141.84;75.61;18822.19;5033295;28;20190;-61
2022/11/26 10:08:59;;;;;;;12.20;6.70;;;8.90;99.90;;;-141.84;75.20;18824.22;5052282;28;20202;-61
2022/11/26 10:11:37;;;;;;;16.33;6.80;;;9.00;99.90;;;-141.84;74.94;18824.22;5032210;28;20217;-61
2022/11/26 10:14:28;;;;;;;11.33;6.10;;;9.00;99.90;;;-141.84;75.28;18834.38;5031704;28;20229;-60
2022/11/26 10:17:24;;;;;;;14.87;6.97;;;9.00;99.90;;;-141.84;75.37;18854.69;5031918;28;20340;-60